sensor_id;sensor_type;location;lat;lon;timestamp;P1;durP1;ratioP1;P2;durP2;ratioP2
83690;SDS011;73671;43.220;0.064;2023-11-22T00:01:04;5.80;;;4.20;;
83690;SDS011;73671;43.220;0.064;2023-11-22T00:03:30;6.22;;;3.55;;
83690;SDS011;73671;43.220;0.064;2023-11-22T00:05:56;9.57;;;3.75;;
83690;SDS011;73671;43.220;0.064;2023-11-22T00:08:21;7.90;;;4.25;;
83690;SDS011;73671;43.220;0.064;2023-11-22T00:10:46;7.75;;;3.75;;
83690;SDS011;73671;43.220;0.064;2023-11-22T00:13:12;6.22;;;4.95;;
83690;SDS011;73671;43.220;0.064;2023-11-22T00:15:37;6.70;;;5.07;;
83690;SDS011;73671;43.220;0.064;2023-11-22T00:18:03;9.20;;;3.60;;
83690;SDS011;73671;43.220;0.064;2023-11-22T00:20:29;6.18;;;3.53;;
83690;SDS011;73671;43.220;0.064;2023-11-22T00:22:55;4.57;;;3.17;;
83690;SDS011;73671;43.220;0.064;2023-11-22T00:25:21;7.63;;;3.58;;
83690;SDS011;73671;43.220;0.064;2023-11-22T00:27:46;9.43;;;3.88;;
83690;SDS011;73671;43.220;0.064;2023-11-22T00:30:12;7.43;;;3.67;;
83690;SDS011;73671;43.220;0.064;2023-11-22T00:32:38;4.97;;;3.85;;
83690;SDS011;73671;43.220;0.064;2023-11-22T00:35:05;5.38;;;4.25;;
83690;SDS011;73671;43.220;0.064;2023-11-22T00:37:32;6.82;;;4.30;;
83690;SDS011;73671;43.220;0.064;2023-11-22T00:39:59;8.60;;;4.10;;
83690;SDS011;73671;43.220;0.064;2023-11-22T00:42:25;4.57;;;4.13;;
83690;SDS011;73671;43.220;0.064;2023-11-22T00:44:52;8.38;;;4.38;;
83690;SDS011;73671;43.220;0.064;2023-11-22T00:47:18;8.77;;;4.60;;
83690;SDS011;73671;43.220;0.064;2023-11-22T00:49:44;8.15;;;4.85;;
83690;SDS011;73671;43.220;0.064;2023-11-22T00:52:09;8.77;;;4.93;;
83690;SDS011;73671;43.220;0.064;2023-11-22T00:54:34;9.13;;;4.50;;
83690;SDS011;73671;43.220;0.064;2023-11-22T00:57:00;8.88;;;5.05;;
83690;SDS011;73671;43.220;0.064;2023-11-22T00:59:25;7.75;;;4.75;;
83690;SDS011;73671;43.220;0.064;2023-11-22T01:01:51;9.95;;;4.63;;
83690;SDS011;73671;43.220;0.064;2023-11-22T01:04:17;7.20;;;4.70;;
83690;SDS011;73671;43.220;0.064;2023-11-22T01:06:42;7.97;;;5.20;;
83690;SDS011;73671;43.220;0.064;2023-11-22T01:09:08;5.65;;;4.75;;
83690;SDS011;73671;43.220;0.064;2023-11-22T01:11:38;5.97;;;4.60;;
83690;SDS011;73671;43.220;0.064;2023-11-22T01:14:04;8.13;;;5.10;;
83690;SDS011;73671;43.220;0.064;2023-11-22T01:16:30;11.80;;;5.22;;
83690;SDS011;73671;43.220;0.064;2023-11-22T01:18:55;6.78;;;5.22;;
83690;SDS011;73671;43.220;0.064;2023-11-22T01:21:21;7.43;;;5.43;;
83690;SDS011;73671;43.220;0.064;2023-11-22T01:23:46;7.00;;;5.03;;
83690;SDS011;73671;43.220;0.064;2023-11-22T01:26:12;12.40;;;5.07;;
83690;SDS011;73671;43.220;0.064;2023-11-22T01:28:37;7.32;;;4.95;;
83690;SDS011;73671;43.220;0.064;2023-11-22T01:31:05;7.95;;;5.05;;
83690;SDS011;73671;43.220;0.064;2023-11-22T01:33:30;6.18;;;4.63;;
83690;SDS011;73671;43.220;0.064;2023-11-22T01:35:57;8.02;;;5.40;;
83690;SDS011;73671;43.220;0.064;2023-11-22T01:38:22;10.52;;;6.05;;
83690;SDS011;73671;43.220;0.064;2023-11-22T01:40:48;9.95;;;5.30;;
83690;SDS011;73671;43.220;0.064;2023-11-22T01:43:20;10.13;;;4.82;;
83690;SDS011;73671;43.220;0.064;2023-11-22T01:45:49;11.00;;;5.75;;
83690;SDS011;73671;43.220;0.064;2023-11-22T01:48:15;9.43;;;5.40;;
83690;SDS011;73671;43.220;0.064;2023-11-22T01:50:40;6.63;;;5.38;;
83690;SDS011;73671;43.220;0.064;2023-11-22T01:53:08;6.93;;;5.45;;
83690;SDS011;73671;43.220;0.064;2023-11-22T01:55:35;10.60;;;6.15;;
83690;SDS011;73671;43.220;0.064;2023-11-22T01:58:01;11.93;;;6.13;;
83690;SDS011;73671;43.220;0.064;2023-11-22T02:00:29;11.95;;;6.30;;
83690;SDS011;73671;43.220;0.064;2023-11-22T02:03:00;11.02;;;6.55;;
83690;SDS011;73671;43.220;0.064;2023-11-22T02:05:25;9.00;;;5.78;;
83690;SDS011;73671;43.220;0.064;2023-11-22T02:07:51;10.32;;;5.45;;
83690;SDS011;73671;43.220;0.064;2023-11-22T02:10:17;8.90;;;5.40;;
83690;SDS011;73671;43.220;0.064;2023-11-22T02:12:42;6.20;;;5.45;;
83690;SDS011;73671;43.220;0.064;2023-11-22T02:15:08;8.07;;;5.70;;
83690;SDS011;73671;43.220;0.064;2023-11-22T02:17:34;11.40;;;5.88;;
83690;SDS011;73671;43.220;0.064;2023-11-22T02:19:59;7.35;;;5.18;;
83690;SDS011;73671;43.220;0.064;2023-11-22T02:22:25;9.07;;;5.45;;
83690;SDS011;73671;43.220;0.064;2023-11-22T02:24:50;9.68;;;5.40;;
83690;SDS011;73671;43.220;0.064;2023-11-22T02:27:15;8.73;;;5.10;;
83690;SDS011;73671;43.220;0.064;2023-11-22T02:29:41;11.02;;;5.90;;
83690;SDS011;73671;43.220;0.064;2023-11-22T02:32:06;9.13;;;5.28;;
83690;SDS011;73671;43.220;0.064;2023-11-22T02:34:31;10.13;;;5.72;;
83690;SDS011;73671;43.220;0.064;2023-11-22T02:36:57;8.43;;;5.30;;
83690;SDS011;73671;43.220;0.064;2023-11-22T02:39:24;9.07;;;5.65;;
83690;SDS011;73671;43.220;0.064;2023-11-22T02:41:54;6.80;;;5.13;;
83690;SDS011;73671;43.220;0.064;2023-11-22T02:44:20;10.00;;;5.93;;
83690;SDS011;73671;43.220;0.064;2023-11-22T02:46:45;10.98;;;5.65;;
83690;SDS011;73671;43.220;0.064;2023-11-22T02:49:10;10.55;;;6.28;;
83690;SDS011;73671;43.220;0.064;2023-11-22T02:51:36;9.48;;;5.68;;
83690;SDS011;73671;43.220;0.064;2023-11-22T02:54:01;10.45;;;5.72;;
83690;SDS011;73671;43.220;0.064;2023-11-22T02:56:27;10.30;;;5.95;;
83690;SDS011;73671;43.220;0.064;2023-11-22T02:58:52;10.10;;;5.65;;
83690;SDS011;73671;43.220;0.064;2023-11-22T03:01:17;14.02;;;6.32;;
83690;SDS011;73671;43.220;0.064;2023-11-22T03:03:43;11.80;;;6.25;;
83690;SDS011;73671;43.220;0.064;2023-11-22T03:06:08;11.73;;;6.75;;
83690;SDS011;73671;43.220;0.064;2023-11-22T03:08:34;13.65;;;6.82;;
83690;SDS011;73671;43.220;0.064;2023-11-22T03:10:59;9.07;;;6.47;;
83690;SDS011;73671;43.220;0.064;2023-11-22T03:13:25;9.70;;;6.55;;
83690;SDS011;73671;43.220;0.064;2023-11-22T03:15:50;14.25;;;6.35;;
83690;SDS011;73671;43.220;0.064;2023-11-22T03:18:17;9.18;;;6.35;;
83690;SDS011;73671;43.220;0.064;2023-11-22T03:20:43;8.70;;;6.65;;
83690;SDS011;73671;43.220;0.064;2023-11-22T03:23:08;12.35;;;6.93;;
83690;SDS011;73671;43.220;0.064;2023-11-22T03:25:35;11.10;;;6.55;;
83690;SDS011;73671;43.220;0.064;2023-11-22T03:28:01;13.23;;;7.40;;
83690;SDS011;73671;43.220;0.064;2023-11-22T03:30:26;9.48;;;6.78;;
83690;SDS011;73671;43.220;0.064;2023-11-22T03:32:51;9.20;;;6.22;;
83690;SDS011;73671;43.220;0.064;2023-11-22T03:35:17;11.27;;;6.47;;
83690;SDS011;73671;43.220;0.064;2023-11-22T03:37:42;9.52;;;6.85;;
83690;SDS011;73671;43.220;0.064;2023-11-22T03:40:08;8.82;;;6.95;;
83690;SDS011;73671;43.220;0.064;2023-11-22T03:42:35;8.57;;;6.45;;
83690;SDS011;73671;43.220;0.064;2023-11-22T03:45:02;9.55;;;6.70;;
83690;SDS011;73671;43.220;0.064;2023-11-22T03:47:28;14.25;;;7.10;;
83690;SDS011;73671;43.220;0.064;2023-11-22T03:49:53;10.85;;;6.53;;
83690;SDS011;73671;43.220;0.064;2023-11-22T03:52:19;8.05;;;6.05;;
83690;SDS011;73671;43.220;0.064;2023-11-22T03:54:44;9.85;;;6.43;;
83690;SDS011;73671;43.220;0.064;2023-11-22T03:57:09;9.15;;;6.45;;
83690;SDS011;73671;43.220;0.064;2023-11-22T03:59:35;10.95;;;6.65;;
83690;SDS011;73671;43.220;0.064;2023-11-22T04:02:00;10.30;;;6.72;;
83690;SDS011;73671;43.220;0.064;2023-11-22T04:04:25;7.35;;;6.13;;
83690;SDS011;73671;43.220;0.064;2023-11-22T04:06:51;9.55;;;6.13;;
83690;SDS011;73671;43.220;0.064;2023-11-22T04:09:17;13.25;;;6.43;;
83690;SDS011;73671;43.220;0.064;2023-11-22T04:11:43;11.07;;;6.30;;
83690;SDS011;73671;43.220;0.064;2023-11-22T04:14:08;12.38;;;6.65;;
83690;SDS011;73671;43.220;0.064;2023-11-22T04:16:34;13.80;;;6.60;;
83690;SDS011;73671;43.220;0.064;2023-11-22T04:18:59;13.85;;;6.57;;
83690;SDS011;73671;43.220;0.064;2023-11-22T04:21:25;9.68;;;6.50;;
83690;SDS011;73671;43.220;0.064;2023-11-22T04:23:50;9.98;;;6.53;;
83690;SDS011;73671;43.220;0.064;2023-11-22T04:26:16;11.55;;;7.22;;
83690;SDS011;73671;43.220;0.064;2023-11-22T04:28:41;11.68;;;6.82;;
83690;SDS011;73671;43.220;0.064;2023-11-22T04:31:07;12.25;;;7.38;;
83690;SDS011;73671;43.220;0.064;2023-11-22T04:33:36;10.27;;;6.55;;
83690;SDS011;73671;43.220;0.064;2023-11-22T04:36:01;11.40;;;6.97;;
83690;SDS011;73671;43.220;0.064;2023-11-22T04:38:26;9.93;;;6.93;;
83690;SDS011;73671;43.220;0.064;2023-11-22T04:40:52;9.70;;;7.38;;
83690;SDS011;73671;43.220;0.064;2023-11-22T04:43:18;10.75;;;6.78;;
83690;SDS011;73671;43.220;0.064;2023-11-22T04:45:43;8.48;;;6.43;;
83690;SDS011;73671;43.220;0.064;2023-11-22T04:48:08;12.98;;;7.22;;
83690;SDS011;73671;43.220;0.064;2023-11-22T04:50:34;10.80;;;7.07;;
83690;SDS011;73671;43.220;0.064;2023-11-22T04:53:00;8.25;;;6.35;;
83690;SDS011;73671;43.220;0.064;2023-11-22T04:55:29;9.40;;;7.30;;
83690;SDS011;73671;43.220;0.064;2023-11-22T04:57:54;10.52;;;6.90;;
83690;SDS011;73671;43.220;0.064;2023-11-22T05:00:23;9.60;;;6.82;;
83690;SDS011;73671;43.220;0.064;2023-11-22T05:02:48;9.50;;;6.90;;
83690;SDS011;73671;43.220;0.064;2023-11-22T05:05:14;10.38;;;6.75;;
83690;SDS011;73671;43.220;0.064;2023-11-22T05:07:39;9.32;;;7.07;;
83690;SDS011;73671;43.220;0.064;2023-11-22T05:10:05;12.63;;;7.47;;
83690;SDS011;73671;43.220;0.064;2023-11-22T05:12:34;10.95;;;6.65;;
83690;SDS011;73671;43.220;0.064;2023-11-22T05:14:59;10.32;;;6.70;;
83690;SDS011;73671;43.220;0.064;2023-11-22T05:17:24;10.60;;;6.80;;
83690;SDS011;73671;43.220;0.064;2023-11-22T05:19:50;9.65;;;6.80;;
83690;SDS011;73671;43.220;0.064;2023-11-22T05:22:16;9.77;;;7.38;;
83690;SDS011;73671;43.220;0.064;2023-11-22T05:24:41;12.35;;;7.88;;
83690;SDS011;73671;43.220;0.064;2023-11-22T05:27:07;11.27;;;7.65;;
83690;SDS011;73671;43.220;0.064;2023-11-22T05:29:33;12.48;;;9.05;;
83690;SDS011;73671;43.220;0.064;2023-11-22T05:31:59;12.18;;;7.28;;
83690;SDS011;73671;43.220;0.064;2023-11-22T05:34:25;13.40;;;8.85;;
83690;SDS011;73671;43.220;0.064;2023-11-22T05:36:51;13.50;;;9.55;;
83690;SDS011;73671;43.220;0.064;2023-11-22T05:39:17;15.40;;;9.40;;
83690;SDS011;73671;43.220;0.064;2023-11-22T05:41:44;13.45;;;8.00;;
83690;SDS011;73671;43.220;0.064;2023-11-22T05:44:09;13.73;;;8.13;;
83690;SDS011;73671;43.220;0.064;2023-11-22T05:46:35;12.20;;;8.75;;
83690;SDS011;73671;43.220;0.064;2023-11-22T05:49:00;10.32;;;8.18;;
83690;SDS011;73671;43.220;0.064;2023-11-22T05:51:25;11.77;;;7.70;;
83690;SDS011;73671;43.220;0.064;2023-11-22T05:53:51;10.68;;;6.95;;
83690;SDS011;73671;43.220;0.064;2023-11-22T05:56:16;10.40;;;6.88;;
83690;SDS011;73671;43.220;0.064;2023-11-22T05:58:42;11.43;;;6.93;;
83690;SDS011;73671;43.220;0.064;2023-11-22T06:01:08;14.00;;;7.05;;
83690;SDS011;73671;43.220;0.064;2023-11-22T06:03:34;8.27;;;6.97;;
83690;SDS011;73671;43.220;0.064;2023-11-22T06:06:01;10.13;;;7.20;;
83690;SDS011;73671;43.220;0.064;2023-11-22T06:08:28;10.18;;;6.63;;
83690;SDS011;73671;43.220;0.064;2023-11-22T06:10:53;12.90;;;6.40;;
83690;SDS011;73671;43.220;0.064;2023-11-22T06:13:22;10.65;;;7.18;;
83690;SDS011;73671;43.220;0.064;2023-11-22T06:15:47;11.73;;;6.93;;
83690;SDS011;73671;43.220;0.064;2023-11-22T06:18:13;8.70;;;6.78;;
83690;SDS011;73671;43.220;0.064;2023-11-22T06:20:40;9.70;;;6.95;;
83690;SDS011;73671;43.220;0.064;2023-11-22T06:23:06;9.68;;;6.85;;
83690;SDS011;73671;43.220;0.064;2023-11-22T06:25:31;11.65;;;7.63;;
83690;SDS011;73671;43.220;0.064;2023-11-22T06:27:57;9.90;;;7.40;;
83690;SDS011;73671;43.220;0.064;2023-11-22T06:30:22;9.07;;;7.25;;
83690;SDS011;73671;43.220;0.064;2023-11-22T06:32:49;9.13;;;7.10;;
83690;SDS011;73671;43.220;0.064;2023-11-22T06:35:15;9.27;;;6.50;;
83690;SDS011;73671;43.220;0.064;2023-11-22T06:37:42;10.05;;;6.88;;
83690;SDS011;73671;43.220;0.064;2023-11-22T06:40:09;9.65;;;6.90;;
83690;SDS011;73671;43.220;0.064;2023-11-22T06:42:37;10.55;;;6.65;;
83690;SDS011;73671;43.220;0.064;2023-11-22T06:45:03;10.90;;;6.50;;
83690;SDS011;73671;43.220;0.064;2023-11-22T06:47:35;13.52;;;7.28;;
83690;SDS011;73671;43.220;0.064;2023-11-22T06:50:04;8.77;;;6.47;;
83690;SDS011;73671;43.220;0.064;2023-11-22T06:52:34;12.45;;;7.10;;
83690;SDS011;73671;43.220;0.064;2023-11-22T06:55:06;13.77;;;6.72;;
83690;SDS011;73671;43.220;0.064;2023-11-22T06:57:33;11.73;;;6.93;;
83690;SDS011;73671;43.220;0.064;2023-11-22T07:00:00;12.20;;;7.82;;
83690;SDS011;73671;43.220;0.064;2023-11-22T07:02:29;12.52;;;7.68;;
83690;SDS011;73671;43.220;0.064;2023-11-22T07:04:55;12.15;;;7.28;;
83690;SDS011;73671;43.220;0.064;2023-11-22T07:07:21;9.70;;;6.82;;
83690;SDS011;73671;43.220;0.064;2023-11-22T07:09:46;10.90;;;7.10;;
83690;SDS011;73671;43.220;0.064;2023-11-22T07:12:12;10.38;;;6.97;;
83690;SDS011;73671;43.220;0.064;2023-11-22T07:14:37;12.23;;;7.07;;
83690;SDS011;73671;43.220;0.064;2023-11-22T07:17:03;10.10;;;7.57;;
83690;SDS011;73671;43.220;0.064;2023-11-22T07:19:31;10.93;;;7.43;;
83690;SDS011;73671;43.220;0.064;2023-11-22T07:21:57;9.30;;;6.97;;
83690;SDS011;73671;43.220;0.064;2023-11-22T07:24:23;8.43;;;6.10;;
83690;SDS011;73671;43.220;0.064;2023-11-22T07:26:48;11.55;;;6.75;;
83690;SDS011;73671;43.220;0.064;2023-11-22T07:29:14;12.27;;;8.20;;
83690;SDS011;73671;43.220;0.064;2023-11-22T07:31:40;11.27;;;8.82;;
83690;SDS011;73671;43.220;0.064;2023-11-22T07:34:07;13.68;;;7.68;;
83690;SDS011;73671;43.220;0.064;2023-11-22T07:36:36;11.40;;;8.13;;
83690;SDS011;73671;43.220;0.064;2023-11-22T07:39:04;9.52;;;7.00;;
83690;SDS011;73671;43.220;0.064;2023-11-22T07:41:30;8.77;;;6.55;;
83690;SDS011;73671;43.220;0.064;2023-11-22T07:43:56;10.05;;;6.13;;
83690;SDS011;73671;43.220;0.064;2023-11-22T07:46:22;7.75;;;6.20;;
83690;SDS011;73671;43.220;0.064;2023-11-22T07:48:47;9.23;;;6.80;;
83690;SDS011;73671;43.220;0.064;2023-11-22T07:51:14;9.85;;;6.35;;
83690;SDS011;73671;43.220;0.064;2023-11-22T07:53:42;10.38;;;6.00;;
83690;SDS011;73671;43.220;0.064;2023-11-22T07:56:08;9.88;;;6.95;;
83690;SDS011;73671;43.220;0.064;2023-11-22T07:58:36;12.45;;;6.97;;
83690;SDS011;73671;43.220;0.064;2023-11-22T08:01:02;8.93;;;6.57;;
83690;SDS011;73671;43.220;0.064;2023-11-22T08:03:31;14.68;;;7.38;;
83690;SDS011;73671;43.220;0.064;2023-11-22T08:05:56;11.85;;;7.72;;
83690;SDS011;73671;43.220;0.064;2023-11-22T08:08:22;17.65;;;8.65;;
83690;SDS011;73671;43.220;0.064;2023-11-22T08:10:49;10.52;;;7.10;;
83690;SDS011;73671;43.220;0.064;2023-11-22T08:13:18;11.77;;;6.50;;
83690;SDS011;73671;43.220;0.064;2023-11-22T08:15:44;9.95;;;7.22;;
83690;SDS011;73671;43.220;0.064;2023-11-22T08:18:11;11.57;;;6.57;;
83690;SDS011;73671;43.220;0.064;2023-11-22T08:20:37;15.20;;;6.22;;
83690;SDS011;73671;43.220;0.064;2023-11-22T08:23:03;7.88;;;6.28;;
83690;SDS011;73671;43.220;0.064;2023-11-22T08:25:31;10.80;;;7.28;;
83690;SDS011;73671;43.220;0.064;2023-11-22T08:27:56;13.15;;;5.55;;
83690;SDS011;73671;43.220;0.064;2023-11-22T08:30:22;7.75;;;5.18;;
83690;SDS011;73671;43.220;0.064;2023-11-22T08:32:48;10.48;;;7.38;;
83690;SDS011;73671;43.220;0.064;2023-11-22T08:35:18;9.98;;;7.13;;
83690;SDS011;73671;43.220;0.064;2023-11-22T08:37:44;11.73;;;6.75;;
83690;SDS011;73671;43.220;0.064;2023-11-22T08:40:12;9.05;;;6.35;;
83690;SDS011;73671;43.220;0.064;2023-11-22T08:42:39;10.45;;;6.50;;
83690;SDS011;73671;43.220;0.064;2023-11-22T08:45:06;11.93;;;6.95;;
83690;SDS011;73671;43.220;0.064;2023-11-22T08:47:33;6.55;;;5.55;;
83690;SDS011;73671;43.220;0.064;2023-11-22T08:49:59;8.18;;;5.47;;
83690;SDS011;73671;43.220;0.064;2023-11-22T08:52:24;7.20;;;5.30;;
83690;SDS011;73671;43.220;0.064;2023-11-22T08:54:51;7.72;;;6.10;;
83690;SDS011;73671;43.220;0.064;2023-11-22T08:57:17;9.38;;;5.90;;
83690;SDS011;73671;43.220;0.064;2023-11-22T08:59:43;7.55;;;5.88;;
83690;SDS011;73671;43.220;0.064;2023-11-22T09:02:08;7.72;;;5.82;;
83690;SDS011;73671;43.220;0.064;2023-11-22T09:04:35;8.35;;;5.47;;
83690;SDS011;73671;43.220;0.064;2023-11-22T09:07:00;7.07;;;6.00;;
83690;SDS011;73671;43.220;0.064;2023-11-22T09:09:26;9.95;;;6.10;;
83690;SDS011;73671;43.220;0.064;2023-11-22T09:11:56;6.53;;;5.50;;
83690;SDS011;73671;43.220;0.064;2023-11-22T09:14:22;10.38;;;5.95;;
83690;SDS011;73671;43.220;0.064;2023-11-22T09:16:48;7.78;;;5.38;;
83690;SDS011;73671;43.220;0.064;2023-11-22T09:19:19;6.85;;;5.22;;
83690;SDS011;73671;43.220;0.064;2023-11-22T09:21:48;6.95;;;4.97;;
83690;SDS011;73671;43.220;0.064;2023-11-22T09:24:14;8.95;;;5.35;;
83690;SDS011;73671;43.220;0.064;2023-11-22T09:26:39;8.73;;;5.38;;
83690;SDS011;73671;43.220;0.064;2023-11-22T09:29:04;7.80;;;5.47;;
83690;SDS011;73671;43.220;0.064;2023-11-22T09:31:30;8.10;;;5.45;;
83690;SDS011;73671;43.220;0.064;2023-11-22T09:33:56;7.22;;;5.35;;
83690;SDS011;73671;43.220;0.064;2023-11-22T09:36:22;8.93;;;6.20;;
83690;SDS011;73671;43.220;0.064;2023-11-22T09:38:48;7.28;;;5.50;;
83690;SDS011;73671;43.220;0.064;2023-11-22T09:41:13;6.13;;;4.63;;
83690;SDS011;73671;43.220;0.064;2023-11-22T09:43:39;11.65;;;7.68;;
83690;SDS011;73671;43.220;0.064;2023-11-22T09:46:05;6.35;;;5.40;;
83690;SDS011;73671;43.220;0.064;2023-11-22T09:48:30;8.85;;;5.25;;
83690;SDS011;73671;43.220;0.064;2023-11-22T09:51:08;9.35;;;5.00;;
83690;SDS011;73671;43.220;0.064;2023-11-22T09:53:53;6.68;;;4.55;;
83690;SDS011;73671;43.220;0.064;2023-11-22T09:56:25;5.63;;;4.18;;
83690;SDS011;73671;43.220;0.064;2023-11-22T09:58:55;6.63;;;4.60;;
83690;SDS011;73671;43.220;0.064;2023-11-22T10:01:25;6.07;;;4.20;;
83690;SDS011;73671;43.220;0.064;2023-11-22T10:03:53;11.40;;;4.65;;
83690;SDS011;73671;43.220;0.064;2023-11-22T10:06:19;6.10;;;4.63;;
83690;SDS011;73671;43.220;0.064;2023-11-22T10:08:45;4.82;;;4.32;;
83690;SDS011;73671;43.220;0.064;2023-11-22T10:11:16;7.60;;;4.70;;
83690;SDS011;73671;43.220;0.064;2023-11-22T10:13:52;7.18;;;4.35;;
83690;SDS011;73671;43.220;0.064;2023-11-22T10:16:18;7.45;;;4.70;;
83690;SDS011;73671;43.220;0.064;2023-11-22T10:18:47;7.05;;;4.38;;
83690;SDS011;73671;43.220;0.064;2023-11-22T10:21:25;7.07;;;4.63;;
83690;SDS011;73671;43.220;0.064;2023-11-22T10:23:54;7.05;;;5.47;;
83690;SDS011;73671;43.220;0.064;2023-11-22T10:26:21;6.00;;;4.53;;
83690;SDS011;73671;43.220;0.064;2023-11-22T10:28:50;5.32;;;4.38;;
83690;SDS011;73671;43.220;0.064;2023-11-22T10:31:16;5.78;;;4.20;;
83690;SDS011;73671;43.220;0.064;2023-11-22T10:33:42;6.45;;;4.20;;
83690;SDS011;73671;43.220;0.064;2023-11-22T10:36:08;7.80;;;4.20;;
83690;SDS011;73671;43.220;0.064;2023-11-22T10:38:33;6.00;;;3.85;;
83690;SDS011;73671;43.220;0.064;2023-11-22T10:41:02;5.70;;;3.88;;
83690;SDS011;73671;43.220;0.064;2023-11-22T10:43:29;4.00;;;3.35;;
83690;SDS011;73671;43.220;0.064;2023-11-22T10:45:57;7.32;;;3.97;;
83690;SDS011;73671;43.220;0.064;2023-11-22T10:48:23;7.68;;;3.78;;
83690;SDS011;73671;43.220;0.064;2023-11-22T10:50:50;5.10;;;3.90;;
83690;SDS011;73671;43.220;0.064;2023-11-22T10:53:25;3.75;;;3.33;;
83690;SDS011;73671;43.220;0.064;2023-11-22T10:55:59;5.03;;;3.47;;
83690;SDS011;73671;43.220;0.064;2023-11-22T10:58:30;6.00;;;3.47;;
83690;SDS011;73671;43.220;0.064;2023-11-22T11:00:57;7.10;;;3.83;;
83690;SDS011;73671;43.220;0.064;2023-11-22T11:03:23;8.05;;;3.25;;
83690;SDS011;73671;43.220;0.064;2023-11-22T11:05:58;11.35;;;4.57;;
83690;SDS011;73671;43.220;0.064;2023-11-22T11:08:29;5.05;;;3.80;;
83690;SDS011;73671;43.220;0.064;2023-11-22T11:10:57;8.57;;;4.25;;
83690;SDS011;73671;43.220;0.064;2023-11-22T11:13:23;11.32;;;4.45;;
83690;SDS011;73671;43.220;0.064;2023-11-22T11:15:49;5.15;;;3.63;;
83690;SDS011;73671;43.220;0.064;2023-11-22T11:18:16;5.10;;;3.13;;
83690;SDS011;73671;43.220;0.064;2023-11-22T11:23:15;7.53;;;4.55;;
83690;SDS011;73671;43.220;0.064;2023-11-22T11:25:42;5.75;;;3.95;;
83690;SDS011;73671;43.220;0.064;2023-11-22T11:28:11;6.95;;;3.40;;
83690;SDS011;73671;43.220;0.064;2023-11-22T11:33:12;4.30;;;3.45;;
83690;SDS011;73671;43.220;0.064;2023-11-22T11:35:42;7.15;;;3.58;;
83690;SDS011;73671;43.220;0.064;2023-11-22T11:38:12;4.60;;;3.15;;
83690;SDS011;73671;43.220;0.064;2023-11-22T11:40:40;8.00;;;3.70;;
83690;SDS011;73671;43.220;0.064;2023-11-22T11:43:10;7.13;;;4.15;;
83690;SDS011;73671;43.220;0.064;2023-11-22T11:45:37;5.32;;;3.63;;
83690;SDS011;73671;43.220;0.064;2023-11-22T11:48:14;3.58;;;3.28;;
83690;SDS011;73671;43.220;0.064;2023-11-22T11:50:40;7.25;;;3.13;;
83690;SDS011;73671;43.220;0.064;2023-11-22T11:53:06;8.80;;;3.55;;
83690;SDS011;73671;43.220;0.064;2023-11-22T11:55:32;7.22;;;3.65;;
83690;SDS011;73671;43.220;0.064;2023-11-22T11:58:03;6.20;;;3.78;;
83690;SDS011;73671;43.220;0.064;2023-11-22T12:00:30;6.63;;;3.70;;
83690;SDS011;73671;43.220;0.064;2023-11-22T12:02:55;7.38;;;3.42;;
83690;SDS011;73671;43.220;0.064;2023-11-22T12:05:21;3.75;;;3.33;;
83690;SDS011;73671;43.220;0.064;2023-11-22T12:07:47;4.80;;;3.13;;
83690;SDS011;73671;43.220;0.064;2023-11-22T12:10:13;4.07;;;3.03;;
83690;SDS011;73671;43.220;0.064;2023-11-22T12:12:38;4.47;;;3.30;;
83690;SDS011;73671;43.220;0.064;2023-11-22T12:15:04;4.72;;;3.60;;
83690;SDS011;73671;43.220;0.064;2023-11-22T12:17:31;4.88;;;3.40;;
83690;SDS011;73671;43.220;0.064;2023-11-22T12:20:13;7.70;;;3.83;;
83690;SDS011;73671;43.220;0.064;2023-11-22T12:22:42;3.83;;;3.05;;
83690;SDS011;73671;43.220;0.064;2023-11-22T12:25:08;4.93;;;2.97;;
83690;SDS011;73671;43.220;0.064;2023-11-22T12:27:38;5.75;;;3.20;;
83690;SDS011;73671;43.220;0.064;2023-11-22T12:30:04;4.47;;;3.55;;
83690;SDS011;73671;43.220;0.064;2023-11-22T12:32:31;4.53;;;3.38;;
83690;SDS011;73671;43.220;0.064;2023-11-22T12:34:57;4.55;;;3.15;;
83690;SDS011;73671;43.220;0.064;2023-11-22T12:37:23;3.38;;;3.08;;
83690;SDS011;73671;43.220;0.064;2023-11-22T12:39:50;4.50;;;3.13;;
83690;SDS011;73671;43.220;0.064;2023-11-22T12:42:17;3.95;;;3.00;;
83690;SDS011;73671;43.220;0.064;2023-11-22T12:44:49;4.22;;;3.10;;
83690;SDS011;73671;43.220;0.064;2023-11-22T12:47:38;5.22;;;2.95;;
83690;SDS011;73671;43.220;0.064;2023-11-22T12:50:03;9.25;;;3.25;;
83690;SDS011;73671;43.220;0.064;2023-11-22T12:52:33;5.10;;;3.58;;
83690;SDS011;73671;43.220;0.064;2023-11-22T12:54:59;5.00;;;3.45;;
83690;SDS011;73671;43.220;0.064;2023-11-22T12:57:24;7.05;;;3.83;;
83690;SDS011;73671;43.220;0.064;2023-11-22T12:59:50;4.07;;;3.65;;
83690;SDS011;73671;43.220;0.064;2023-11-22T13:02:16;3.72;;;3.30;;
83690;SDS011;73671;43.220;0.064;2023-11-22T13:04:42;3.97;;;3.35;;
83690;SDS011;73671;43.220;0.064;2023-11-22T13:07:08;7.20;;;3.10;;
83690;SDS011;73671;43.220;0.064;2023-11-22T13:09:33;5.20;;;3.03;;
83690;SDS011;73671;43.220;0.064;2023-11-22T13:12:00;5.32;;;3.53;;
83690;SDS011;73671;43.220;0.064;2023-11-22T13:14:26;3.65;;;3.20;;
83690;SDS011;73671;43.220;0.064;2023-11-22T13:16:57;4.85;;;3.10;;
83690;SDS011;73671;43.220;0.064;2023-11-22T13:19:22;7.25;;;4.13;;
83690;SDS011;73671;43.220;0.064;2023-11-22T13:21:47;4.45;;;3.50;;
83690;SDS011;73671;43.220;0.064;2023-11-22T13:24:14;5.65;;;3.65;;
83690;SDS011;73671;43.220;0.064;2023-11-22T13:26:41;4.95;;;3.10;;
83690;SDS011;73671;43.220;0.064;2023-11-22T13:29:07;7.93;;;4.28;;
83690;SDS011;73671;43.220;0.064;2023-11-22T13:31:32;4.40;;;3.40;;
83690;SDS011;73671;43.220;0.064;2023-11-22T13:33:58;4.80;;;3.42;;
83690;SDS011;73671;43.220;0.064;2023-11-22T13:36:24;4.57;;;3.28;;
83690;SDS011;73671;43.220;0.064;2023-11-22T13:38:49;4.22;;;3.40;;
83690;SDS011;73671;43.220;0.064;2023-11-22T13:41:15;7.60;;;4.22;;
83690;SDS011;73671;43.220;0.064;2023-11-22T13:43:40;6.03;;;4.50;;
83690;SDS011;73671;43.220;0.064;2023-11-22T13:46:06;5.63;;;3.80;;
83690;SDS011;73671;43.220;0.064;2023-11-22T13:48:35;5.88;;;3.75;;
83690;SDS011;73671;43.220;0.064;2023-11-22T13:51:00;5.55;;;4.18;;
83690;SDS011;73671;43.220;0.064;2023-11-22T13:53:25;3.60;;;3.30;;
83690;SDS011;73671;43.220;0.064;2023-11-22T13:55:54;4.00;;;3.08;;
83690;SDS011;73671;43.220;0.064;2023-11-22T13:58:20;6.57;;;3.53;;
83690;SDS011;73671;43.220;0.064;2023-11-22T14:00:46;4.88;;;2.90;;
83690;SDS011;73671;43.220;0.064;2023-11-22T14:03:13;6.00;;;2.75;;
83690;SDS011;73671;43.220;0.064;2023-11-22T14:05:38;3.65;;;2.70;;
83690;SDS011;73671;43.220;0.064;2023-11-22T14:08:04;4.13;;;2.75;;
83690;SDS011;73671;43.220;0.064;2023-11-22T14:10:31;4.15;;;2.80;;
83690;SDS011;73671;43.220;0.064;2023-11-22T14:12:57;4.32;;;2.97;;
83690;SDS011;73671;43.220;0.064;2023-11-22T14:15:25;4.15;;;2.40;;
83690;SDS011;73671;43.220;0.064;2023-11-22T14:17:52;6.03;;;2.63;;
83690;SDS011;73671;43.220;0.064;2023-11-22T14:20:18;4.25;;;3.05;;
83690;SDS011;73671;43.220;0.064;2023-11-22T14:22:43;4.82;;;3.40;;
83690;SDS011;73671;43.220;0.064;2023-11-22T14:25:09;6.60;;;3.80;;
83690;SDS011;73671;43.220;0.064;2023-11-22T14:27:39;4.13;;;3.38;;
83690;SDS011;73671;43.220;0.064;2023-11-22T14:30:11;5.50;;;3.40;;
83690;SDS011;73671;43.220;0.064;2023-11-22T14:32:42;6.57;;;3.63;;
83690;SDS011;73671;43.220;0.064;2023-11-22T14:35:08;6.78;;;4.30;;
83690;SDS011;73671;43.220;0.064;2023-11-22T14:37:34;6.15;;;3.78;;
83690;SDS011;73671;43.220;0.064;2023-11-22T14:40:00;5.05;;;3.65;;
83690;SDS011;73671;43.220;0.064;2023-11-22T14:42:29;5.97;;;3.53;;
83690;SDS011;73671;43.220;0.064;2023-11-22T14:44:54;4.00;;;2.97;;